createdAt,value
2023-03-05T00:02:13.585Z,61.23
2023-03-05T00:04:53.456Z,61.11
2023-03-05T00:07:40.588Z,61.37
2023-03-05T00:10:27.435Z,61.41
2023-03-05T00:13:08.121Z,61.97
2023-03-05T00:15:54.442Z,61.69
2023-03-05T00:18:38.548Z,61.86
2023-03-05T00:21:37.389Z,61.95
2023-03-05T00:24:23.540Z,61.78
2023-03-05T00:27:10.433Z,61.43
2023-03-05T00:29:51.552Z,61.32
2023-03-05T00:32:38.469Z,61.28
2023-03-05T00:35:19.494Z,61.73
2023-03-05T00:38:06.475Z,62.04
2023-03-05T00:40:47.494Z,61.50
2023-03-05T00:43:35.432Z,61.74
2023-03-05T00:46:15.532Z,62.02
2023-03-05T00:49:03.359Z,62.13
2023-03-05T00:51:43.517Z,62.26
2023-03-05T00:54:30.348Z,62.39
2023-03-05T00:57:10.571Z,62.54
2023-03-05T00:59:57.411Z,62.94
2023-03-05T01:02:37.439Z,63.88
2023-03-05T01:05:24.428Z,64.10
2023-03-05T01:08:18.359Z,64.15
2023-03-05T01:11:05.360Z,63.66
2023-03-05T01:13:45.522Z,63.44
2023-03-05T01:16:32.413Z,63.73
2023-03-05T01:19:12.451Z,63.90
2023-03-05T01:21:59.363Z,64.25
2023-03-05T01:24:39.463Z,64.33
2023-03-05T01:27:26.333Z,64.59
2023-03-05T01:30:07.854Z,64.37
2023-03-05T01:32:54.323Z,64.59
2023-03-05T01:35:34.508Z,65.27
2023-03-05T01:38:21.372Z,64.76
2023-03-05T01:41:01.415Z,64.90
2023-03-05T01:43:49.352Z,65.06
2023-03-05T01:46:35.563Z,65.00
2023-03-05T01:49:29.386Z,64.71
2023-03-05T01:52:18.106Z,65.29
2023-03-05T01:55:16.366Z,64.65
2023-03-05T01:58:09.431Z,64.65
2023-03-05T02:00:59.354Z,64.66
2023-03-05T02:03:41.510Z,64.82
2023-03-05T02:06:29.361Z,64.56
2023-03-05T02:09:24.329Z,64.89
2023-03-05T02:12:11.367Z,65.03
2023-03-05T02:14:59.256Z,64.48
2023-03-05T02:17:46.328Z,64.33
2023-03-05T02:20:30.402Z,64.22
2023-03-05T02:23:33.404Z,64.58
2023-03-05T02:26:18.389Z,64.54
2023-03-05T02:29:09.367Z,64.28
2023-03-05T02:31:50.432Z,64.41
2023-03-05T02:34:37.358Z,64.89
2023-03-05T02:37:17.441Z,65.03
2023-03-05T02:40:05.325Z,65.15
2023-03-05T02:42:46.824Z,64.89
2023-03-05T02:45:33.344Z,65.09
2023-03-05T02:48:13.422Z,64.92
2023-03-05T02:51:00.317Z,64.84
2023-03-05T02:53:41.688Z,65.11
2023-03-05T02:56:29.309Z,65.40
2023-03-05T02:59:09.389Z,65.28
2023-03-05T03:01:56.323Z,64.84
2023-03-05T03:04:36.377Z,64.93
2023-03-05T03:07:23.326Z,65.12
2023-03-05T03:10:11.417Z,65.21
2023-03-05T03:12:52.308Z,65.56
2023-03-05T03:15:40.417Z,65.28
2023-03-05T03:18:20.308Z,65.58
2023-03-05T03:21:07.451Z,65.35
2023-03-05T03:23:47.314Z,65.14
2023-03-05T03:26:34.392Z,66.17
2023-03-05T03:29:14.317Z,65.97
2023-03-05T03:32:01.387Z,65.81
2023-03-05T03:34:41.313Z,66.47
2023-03-05T03:37:28.378Z,66.40
2023-03-05T03:40:08.361Z,66.70
2023-03-05T03:42:55.369Z,65.89
2023-03-05T03:45:35.288Z,66.36
2023-03-05T03:48:22.362Z,66.23
2023-03-05T03:51:02.296Z,66.05
2023-03-05T03:53:49.395Z,65.95
2023-03-05T03:56:29.287Z,65.70
2023-03-05T03:59:16.385Z,65.43
2023-03-05T04:01:56.271Z,65.17
2023-03-05T04:04:43.352Z,64.82
2023-03-05T04:07:23.288Z,64.67
2023-03-05T04:10:10.362Z,64.62
2023-03-05T04:12:50.296Z,64.14
2023-03-05T04:15:37.374Z,64.51
2023-03-05T04:18:18.326Z,64.78
2023-03-05T04:21:05.610Z,64.74
2023-03-05T04:23:46.270Z,65.02
2023-03-05T04:26:33.367Z,64.43
2023-03-05T04:29:13.252Z,64.57
2023-03-05T04:32:00.415Z,64.81
2023-03-05T04:34:42.246Z,64.39
2023-03-05T04:37:29.378Z,64.36
2023-03-05T04:40:10.301Z,64.80
2023-03-05T04:42:57.349Z,64.59
2023-03-05T04:45:38.244Z,64.84
2023-03-05T04:48:25.380Z,65.08
2023-03-05T04:51:05.266Z,65.12
2023-03-05T04:53:52.353Z,65.16
2023-03-05T04:56:32.233Z,65.46
2023-03-05T04:59:19.360Z,65.38
2023-03-05T05:01:59.258Z,65.07
2023-03-05T05:04:46.548Z,65.02
2023-03-05T05:07:26.236Z,64.64
2023-03-05T05:10:21.219Z,64.91
2023-03-05T05:12:48.187Z,64.71
2023-03-05T05:15:15.031Z,64.75
2023-03-05T05:17:41.823Z,64.16
2023-03-05T05:20:11.548Z,64.71
2023-03-05T05:22:38.555Z,64.35
2023-03-05T05:25:05.790Z,65.10
2023-03-05T05:27:32.642Z,65.42
2023-03-05T05:29:59.531Z,65.88
2023-03-05T05:32:26.612Z,65.66
2023-03-05T05:34:58.191Z,65.49
2023-03-05T05:37:26.055Z,65.24
2023-03-05T05:39:52.809Z,65.11
2023-03-05T05:42:22.297Z,64.95
2023-03-05T05:44:49.828Z,64.90
2023-03-05T05:47:17.435Z,65.56
2023-03-05T05:49:44.349Z,65.47
2023-03-05T05:52:11.530Z,65.38
2023-03-05T05:54:38.961Z,65.09
2023-03-05T05:57:06.668Z,64.96
2023-03-05T05:59:33.733Z,64.71
2023-03-05T06:02:00.585Z,64.83
2023-03-05T06:04:27.463Z,64.50
2023-03-05T06:06:54.203Z,64.60
2023-03-05T06:09:21.239Z,64.48
2023-03-05T06:11:48.013Z,64.86
2023-03-05T06:14:16.065Z,64.83
2023-03-05T06:16:42.990Z,65.14
2023-03-05T06:19:13.957Z,65.13
2023-03-05T06:21:41.242Z,65.35
2023-03-05T06:24:08.168Z,66.37
2023-03-05T06:26:35.136Z,66.84
2023-03-05T06:29:01.977Z,66.78
2023-03-05T06:31:29.673Z,67.17
2023-03-05T06:34:01.346Z,67.18
2023-03-05T06:36:29.073Z,67.03
2023-03-05T06:38:56.876Z,66.97
2023-03-05T06:41:26.894Z,66.79
2023-03-05T06:43:53.935Z,67.11
2023-03-05T06:46:26.702Z,66.83
2023-03-05T06:48:56.250Z,66.53
2023-03-05T06:51:28.910Z,66.31
2023-03-05T06:53:59.263Z,65.59
2023-03-05T06:56:26.185Z,65.11
2023-03-05T06:58:53.330Z,64.91
2023-03-05T07:01:20.808Z,64.29
2023-03-05T07:03:52.434Z,64.02
2023-03-05T07:06:20.115Z,63.79
2023-03-05T07:08:47.393Z,63.71
2023-03-05T07:11:17.046Z,63.24
2023-03-05T07:13:44.579Z,63.30
2023-03-05T07:16:19.145Z,63.36
2023-03-05T07:18:46.635Z,63.54
2023-03-05T07:21:17.864Z,63.26
2023-03-05T07:23:44.699Z,63.05
2023-03-05T07:26:11.880Z,62.93
2023-03-05T07:28:38.891Z,62.42
2023-03-05T07:31:08.549Z,62.76
2023-03-05T07:33:37.201Z,62.27
2023-03-05T07:36:07.315Z,62.25
2023-03-05T07:38:34.264Z,62.34
2023-03-05T07:41:06.253Z,62.42
2023-03-05T07:43:33.004Z,62.41
2023-03-05T07:45:59.950Z,61.88
2023-03-05T07:48:26.982Z,61.89
2023-03-05T07:51:01.753Z,61.36
2023-03-05T07:53:28.604Z,61.29
2023-03-05T07:55:55.345Z,61.06
2023-03-05T07:58:22.128Z,60.75
2023-03-05T08:00:49.195Z,60.04
2023-03-05T08:03:15.975Z,59.38
2023-03-05T08:05:43.071Z,58.91
2023-03-05T08:08:09.887Z,58.30
2023-03-05T08:10:37.869Z,57.99
2023-03-05T08:13:05.804Z,57.33
2023-03-05T08:15:32.635Z,56.94
2023-03-05T08:18:00.232Z,57.00
2023-03-05T08:20:27.089Z,56.24
2023-03-05T08:22:53.903Z,55.71
2023-03-05T08:25:21.077Z,55.49
2023-03-05T08:27:48.911Z,55.04
2023-03-05T08:30:20.311Z,54.86
2023-03-05T08:32:49.158Z,54.68
2023-03-05T08:35:15.886Z,54.41
2023-03-05T08:37:42.896Z,54.08
2023-03-05T08:40:10.752Z,53.46
2023-03-05T08:42:37.527Z,53.13
2023-03-05T08:45:04.529Z,65.77
2023-03-05T08:47:31.319Z,58.77
2023-03-05T08:49:58.483Z,53.04
2023-03-05T08:52:27.314Z,55.35
2023-03-05T08:54:54.198Z,52.57
2023-03-05T08:57:20.998Z,52.76
2023-03-05T08:59:47.940Z,51.02
2023-03-05T09:02:14.758Z,52.80
2023-03-05T09:04:41.548Z,50.40
2023-03-05T09:07:08.874Z,50.69
2023-03-05T09:09:36.510Z,48.55
2023-03-05T09:12:03.475Z,49.46
2023-03-05T09:14:30.551Z,49.18
2023-03-05T09:16:58.111Z,47.06
2023-03-05T09:19:25.108Z,46.61
2023-03-05T09:21:51.963Z,45.87
2023-03-05T09:24:18.767Z,45.92
2023-03-05T09:26:45.542Z,45.63
2023-03-05T09:29:12.536Z,45.10
2023-03-05T09:31:39.632Z,44.61
2023-03-05T09:34:07.350Z,44.26
2023-03-05T09:36:34.590Z,43.93
2023-03-05T09:39:01.388Z,43.77
2023-03-05T09:41:31.209Z,44.14
2023-03-05T09:44:28.514Z,42.92
2023-03-05T09:47:14.774Z,43.15
2023-03-05T09:50:20.381Z,42.85
2023-03-05T09:52:54.861Z,42.33
2023-03-05T09:55:32.105Z,41.82
2023-03-05T09:58:06.024Z,41.88
2023-03-05T10:00:45.839Z,44.73
2023-03-05T10:03:28.279Z,41.52
2023-03-05T10:06:13.507Z,40.89
2023-03-05T10:08:58.631Z,40.76
2023-03-05T10:11:38.260Z,41.38
2023-03-05T10:14:05.529Z,40.72
2023-03-05T10:17:06.351Z,40.73
2023-03-05T10:19:54.080Z,40.71
2023-03-05T10:22:39.743Z,40.30
2023-03-05T10:25:52.483Z,40.07
2023-03-05T10:28:28.111Z,39.89
2023-03-05T10:31:25.815Z,39.79
2023-03-05T10:34:16.397Z,39.96
2023-03-05T10:37:04.675Z,40.37
2023-03-05T10:39:46.309Z,41.58
2023-03-05T10:42:39.251Z,45.37
2023-03-05T10:45:17.169Z,44.93
2023-03-05T10:47:59.572Z,44.48
2023-03-05T10:50:29.118Z,43.75
2023-03-05T10:53:34.420Z,42.84
2023-03-05T10:56:04.024Z,42.33
2023-03-05T10:58:31.323Z,42.20
2023-03-05T11:01:22.096Z,41.31
2023-03-05T11:03:56.853Z,40.93
2023-03-05T11:06:41.983Z,41.62
2023-03-05T11:09:32.567Z,43.21
2023-03-05T11:12:22.106Z,43.08
2023-03-05T11:15:09.819Z,45.87
2023-03-05T11:17:43.247Z,45.63
2023-03-05T11:20:28.942Z,46.77
2023-03-05T11:23:18.924Z,47.59
2023-03-05T11:25:53.310Z,47.75
2023-03-05T11:28:33.027Z,47.37
2023-03-05T11:31:23.563Z,47.89
2023-03-05T11:34:25.655Z,48.94
2023-03-05T11:36:58.419Z,49.11
2023-03-05T11:39:26.185Z,49.30
2023-03-05T11:42:14.441Z,47.46
2023-03-05T11:44:56.012Z,47.56
2023-03-05T11:47:45.271Z,47.49
2023-03-05T11:50:28.413Z,47.57
2023-03-05T11:53:04.213Z,48.02
2023-03-05T11:55:35.027Z,47.29
2023-03-05T11:58:07.824Z,46.29
2023-03-05T12:00:36.528Z,47.13
2023-03-05T12:03:11.573Z,47.99
2023-03-05T12:05:42.627Z,47.96
2023-03-05T12:08:15.454Z,47.48
2023-03-05T12:10:42.246Z,47.26
2023-03-05T12:13:32.074Z,46.09
2023-03-05T12:16:20.557Z,45.48
2023-03-05T12:19:00.116Z,44.92
2023-03-05T12:21:43.266Z,44.72
2023-03-05T12:24:27.960Z,44.03
2023-03-05T12:27:04.153Z,43.20
2023-03-05T12:30:01.530Z,41.73
2023-03-05T12:32:35.312Z,41.86
2023-03-05T12:35:06.277Z,42.17
2023-03-05T12:37:33.008Z,42.22
2023-03-05T12:40:08.071Z,42.91
2023-03-05T12:42:35.437Z,42.78
2023-03-05T12:45:16.984Z,43.20
2023-03-05T12:47:57.025Z,43.26
2023-03-05T12:50:29.706Z,42.90
2023-03-05T12:53:11.472Z,42.70
2023-03-05T12:55:40.907Z,42.55
2023-03-05T12:58:24.362Z,42.40
2023-03-05T13:01:03.047Z,42.50
2023-03-05T13:03:36.252Z,42.22
2023-03-05T13:06:06.638Z,42.02
2023-03-05T13:08:37.876Z,41.01
2023-03-05T13:11:21.162Z,40.83
2023-03-05T13:13:48.561Z,40.79
2023-03-05T13:16:23.240Z,40.93
2023-03-05T13:18:50.996Z,41.33
2023-03-05T13:21:20.413Z,41.15
2023-03-05T13:23:58.611Z,41.11
2023-03-05T13:26:28.892Z,40.56
2023-03-05T13:29:10.762Z,40.45
2023-03-05T13:32:01.093Z,40.45
2023-03-05T13:34:46.681Z,40.81
2023-03-05T13:37:19.317Z,40.47
2023-03-05T13:40:07.078Z,40.38
2023-03-05T13:42:36.188Z,39.73
2023-03-05T13:45:20.907Z,39.91
2023-03-05T13:48:00.433Z,40.07
2023-03-05T13:50:31.217Z,39.71
2023-03-05T13:53:28.242Z,39.96
2023-03-05T13:56:03.731Z,39.98
2023-03-05T13:58:54.534Z,40.18
2023-03-05T14:01:27.104Z,40.24
2023-03-05T14:03:57.312Z,39.95
2023-03-05T14:06:27.825Z,40.16
2023-03-05T14:09:06.711Z,40.23
2023-03-05T14:11:35.463Z,40.69
2023-03-05T14:14:14.431Z,41.21
2023-03-05T14:16:41.471Z,41.30
2023-03-05T14:19:32.802Z,41.96
2023-03-05T14:21:59.558Z,42.73
2023-03-05T14:24:28.643Z,42.76
2023-03-05T14:27:03.314Z,42.22
2023-03-05T14:29:30.176Z,42.26
2023-03-05T14:32:08.709Z,42.13
2023-03-05T14:34:38.165Z,42.05
2023-03-05T14:37:36.908Z,42.66
2023-03-05T14:40:12.714Z,43.09
2023-03-05T14:42:58.926Z,43.17
2023-03-05T14:45:32.100Z,43.65
2023-03-05T14:48:00.726Z,43.08
2023-03-05T14:50:34.533Z,42.76
2023-03-05T14:53:19.903Z,42.79
2023-03-05T14:55:50.407Z,42.80
2023-03-05T14:58:21.707Z,42.79
2023-03-05T15:00:51.070Z,42.64
2023-03-05T15:03:20.712Z,42.71
2023-03-05T15:05:51.083Z,43.28
2023-03-05T15:08:25.238Z,43.36
2023-03-05T15:10:52.634Z,43.53
2023-03-05T15:13:20.618Z,43.08
2023-03-05T15:15:48.641Z,44.37
2023-03-05T15:18:18.573Z,45.35
2023-03-05T15:20:46.315Z,45.71
2023-03-05T15:23:13.110Z,45.81
2023-03-05T15:25:40.110Z,45.85
2023-03-05T15:28:07.675Z,45.81
2023-03-05T15:30:40.676Z,45.80
2023-03-05T15:33:13.722Z,45.75
2023-03-05T15:35:41.388Z,45.88
2023-03-05T15:38:08.201Z,46.07
2023-03-05T15:40:35.050Z,46.85
2023-03-05T15:43:01.805Z,47.21
2023-03-05T15:45:31.256Z,47.43
2023-03-05T15:47:58.368Z,47.50
2023-03-05T15:50:25.176Z,47.76
2023-03-05T15:52:52.598Z,47.78
2023-03-05T15:55:19.818Z,47.98
2023-03-05T15:57:49.188Z,47.92
2023-03-05T16:00:22.598Z,47.65
2023-03-05T16:02:50.621Z,47.18
2023-03-05T16:05:18.540Z,47.03
2023-03-05T16:07:49.185Z,46.70
2023-03-05T16:10:21.761Z,46.67
2023-03-05T16:12:52.196Z,46.80
2023-03-05T16:15:21.292Z,46.41
2023-03-05T16:17:54.282Z,46.52
2023-03-05T16:20:22.145Z,46.29
2023-03-05T16:22:49.775Z,46.59
2023-03-05T16:25:16.911Z,46.66
2023-03-05T16:27:44.000Z,46.50
2023-03-05T16:30:11.507Z,46.76
2023-03-05T16:32:38.705Z,46.76
2023-03-05T16:35:06.197Z,46.52
2023-03-05T16:37:32.922Z,46.15
2023-03-05T16:39:59.875Z,46.20
2023-03-05T16:42:26.762Z,46.10
2023-03-05T16:44:54.249Z,45.88
2023-03-05T16:47:21.122Z,45.50
2023-03-05T16:49:48.015Z,45.54
2023-03-05T16:52:19.015Z,45.82
2023-03-05T16:54:47.041Z,46.53
2023-03-05T16:57:14.087Z,46.79
2023-03-05T16:59:41.275Z,47.72
2023-03-05T17:02:08.328Z,47.81
2023-03-05T17:04:35.894Z,47.83
2023-03-05T17:07:04.178Z,47.69
2023-03-05T17:09:31.184Z,47.79
2023-03-05T17:11:58.020Z,47.67
2023-03-05T17:14:24.887Z,48.32
2023-03-05T17:16:51.754Z,48.77
2023-03-05T17:19:18.830Z,49.56
2023-03-05T17:21:45.675Z,50.41
2023-03-05T17:24:12.673Z,50.86
2023-03-05T17:26:39.504Z,51.01
2023-03-05T17:29:07.262Z,51.72
2023-03-05T17:31:34.599Z,51.65
2023-03-05T17:34:01.490Z,52.07
2023-03-05T17:36:28.281Z,52.24
2023-03-05T17:38:55.108Z,52.54
2023-03-05T17:41:22.977Z,52.65
2023-03-05T17:43:50.363Z,53.12
2023-03-05T17:46:17.610Z,53.58
2023-03-05T17:48:44.665Z,53.83
2023-03-05T17:51:13.019Z,54.37
2023-03-05T17:53:40.574Z,54.50
2023-03-05T17:56:09.440Z,54.71
2023-03-05T17:58:36.486Z,54.98
2023-03-05T18:01:04.341Z,54.91
2023-03-05T18:03:31.252Z,54.91
2023-03-05T18:05:58.090Z,54.95
2023-03-05T18:08:24.902Z,55.16
2023-03-05T18:10:51.675Z,56.95
2023-03-05T18:13:18.485Z,54.92
2023-03-05T18:15:47.762Z,54.68
2023-03-05T18:18:18.473Z,54.75
2023-03-05T18:20:46.103Z,54.96
2023-03-05T18:23:13.095Z,55.11
2023-03-05T18:25:40.441Z,55.17
2023-03-05T18:28:12.453Z,55.29
2023-03-05T18:30:40.667Z,54.50
2023-03-05T18:33:09.290Z,54.07
2023-03-05T18:35:36.830Z,54.32
2023-03-05T18:38:03.635Z,53.80
2023-03-05T18:40:32.705Z,52.03
2023-03-05T18:43:01.138Z,50.89
2023-03-05T18:45:29.327Z,50.70
2023-03-05T18:47:56.782Z,50.46
2023-03-05T18:50:26.554Z,50.59
2023-03-05T18:52:53.968Z,50.56
2023-03-05T18:55:29.414Z,50.75
2023-03-05T18:57:56.920Z,50.92
2023-03-05T19:00:29.621Z,50.99
2023-03-05T19:02:57.108Z,51.02
2023-03-05T19:05:26.304Z,49.47
2023-03-05T19:07:53.995Z,49.54
2023-03-05T19:10:22.675Z,49.24
2023-03-05T19:12:56.887Z,49.30
2023-03-05T19:15:23.850Z,49.23
2023-03-05T19:17:50.688Z,49.15
2023-03-05T19:20:17.736Z,49.31
2023-03-05T19:22:44.589Z,49.28
2023-03-05T19:25:11.468Z,49.37
2023-03-05T19:27:38.852Z,49.34
2023-03-05T19:30:06.832Z,49.21
2023-03-05T19:32:34.193Z,49.12
2023-03-05T19:35:01.019Z,49.30
2023-03-05T19:37:27.964Z,49.49
2023-03-05T19:39:54.815Z,49.64
2023-03-05T19:42:21.615Z,50.07
2023-03-05T19:44:48.547Z,49.68
2023-03-05T19:47:15.366Z,49.93
2023-03-05T19:49:42.176Z,50.12
2023-03-05T19:52:09.008Z,50.04
2023-03-05T19:54:35.780Z,50.64
2023-03-05T19:57:02.635Z,50.43
2023-03-05T19:59:29.425Z,49.64
2023-03-05T20:01:57.524Z,49.18
2023-03-05T20:04:24.716Z,48.89
2023-03-05T20:06:51.848Z,48.67
2023-03-05T20:09:18.750Z,48.40
2023-03-05T20:11:46.075Z,48.42
2023-03-05T20:14:16.089Z,48.38
2023-03-05T20:16:43.444Z,48.58
2023-03-05T20:19:16.207Z,48.15
2023-03-05T20:21:43.519Z,48.34
2023-03-05T20:24:18.647Z,48.34
2023-03-05T20:26:47.293Z,48.42
2023-03-05T20:29:17.735Z,48.42
2023-03-05T20:31:45.647Z,48.47
2023-03-05T20:34:15.174Z,48.46
2023-03-05T20:36:42.153Z,48.64
2023-03-05T20:39:09.531Z,48.66
2023-03-05T20:41:38.153Z,48.90
2023-03-05T20:44:06.242Z,49.22
2023-03-05T20:46:35.912Z,49.30
2023-03-05T20:49:04.179Z,49.91
2023-03-05T20:51:35.158Z,49.94
2023-03-05T20:54:05.387Z,49.88
2023-03-05T20:56:33.862Z,49.97
2023-03-05T20:59:03.944Z,50.10
2023-03-05T21:01:33.099Z,50.24
2023-03-05T21:04:01.098Z,50.46
2023-03-05T21:06:30.004Z,50.48
2023-03-05T21:08:57.249Z,50.39
2023-03-05T21:11:24.596Z,50.66
2023-03-05T21:13:51.418Z,50.88
2023-03-05T21:16:20.904Z,51.17
2023-03-05T21:18:48.527Z,51.30
2023-03-05T21:21:15.301Z,52.07
2023-03-05T21:23:42.145Z,52.00
2023-03-05T21:26:09.074Z,52.08
2023-03-05T21:28:36.273Z,51.84
2023-03-05T21:31:14.579Z,51.87
2023-03-05T21:33:42.128Z,52.10
2023-03-05T21:36:09.662Z,52.29
2023-03-05T21:38:36.381Z,52.57
2023-03-05T21:41:03.801Z,52.62
2023-03-05T21:43:31.457Z,53.11
2023-03-05T21:46:00.176Z,53.04
2023-03-05T21:48:27.032Z,53.21
2023-03-05T21:50:55.163Z,53.45
2023-03-05T21:53:22.359Z,53.58
2023-03-05T21:56:04.158Z,53.89
2023-03-05T21:58:35.040Z,54.59
2023-03-05T22:01:01.916Z,54.65
2023-03-05T22:03:29.481Z,55.40
2023-03-05T22:05:56.965Z,55.08
2023-03-05T22:08:24.863Z,54.91
2023-03-05T22:10:52.466Z,54.96
2023-03-05T22:13:20.168Z,55.14
2023-03-05T22:15:55.850Z,55.36
2023-03-05T22:18:25.821Z,55.88
2023-03-05T22:20:53.686Z,55.84
2023-03-05T22:23:23.149Z,56.02
2023-03-05T22:25:57.647Z,56.09
2023-03-05T22:28:24.694Z,56.40
2023-03-05T22:30:51.638Z,56.26
2023-03-05T22:33:18.762Z,56.52
2023-03-05T22:35:46.778Z,57.04
2023-03-05T22:38:13.956Z,57.15
2023-03-05T22:40:43.449Z,56.98
2023-03-05T22:43:11.650Z,56.62
2023-03-05T22:45:38.429Z,56.74
2023-03-05T22:48:05.712Z,56.72
2023-03-05T22:50:32.476Z,56.90
2023-03-05T22:52:59.342Z,57.25
2023-03-05T22:55:26.201Z,57.30
2023-03-05T22:57:53.519Z,57.18
2023-03-05T23:00:26.814Z,57.44
2023-03-05T23:02:53.980Z,57.43
2023-03-05T23:05:21.449Z,57.60
2023-03-05T23:07:48.920Z,57.62
2023-03-05T23:10:26.434Z,57.34
2023-03-05T23:12:55.258Z,57.34
2023-03-05T23:15:42.242Z,57.48
2023-03-05T23:18:09.138Z,57.34
2023-03-05T23:20:37.180Z,57.58
2023-03-05T23:23:04.423Z,57.44
2023-03-05T23:25:33.155Z,57.42
2023-03-05T23:28:00.307Z,57.53
2023-03-05T23:30:37.333Z,57.95
2023-03-05T23:33:07.483Z,57.80
2023-03-05T23:35:36.623Z,58.13
2023-03-05T23:38:06.254Z,58.21
2023-03-05T23:40:36.454Z,57.97
2023-03-05T23:43:04.047Z,57.69
2023-03-05T23:45:32.670Z,57.64
2023-03-05T23:48:00.107Z,57.72
2023-03-05T23:50:30.008Z,58.02
2023-03-05T23:52:58.070Z,58.11
2023-03-05T23:55:29.191Z,58.27
2023-03-05T23:57:56.191Z,58.02
